Airport View

Enter AWOS ICAO identifier for current METAR.

ex. KFNL

KIMT 080254Z AUTO 15003KT 10SM FEW060 FEW075 23/19 A2993 RMK AO2 SLP130 T02330194 53008

8 Jul 2020 03:20

Frequency: 119.025

Phone: 906-774-1999

Other Area AWOS: KESC - KSAW - KMNM - KEGV

TAF KSAW 072330Z 0800/0824 05008KT P6SM SCT080 FM080200 VRB04KT P6SM FEW150 TEMPO 0809/0812 4SM BR SCT003 FM081400 17005KT P6SM FEW120 FM081900 19009G19KT P6SM SCT120 FM082300 19010KT P6SM SCT100